Ceres, California
Current Conditions -  °F | °C
As of 2:53 AM on Friday 19 Dec 2014 (Local Time) from KMOD Reporting Station
Broken Clouds Broken Clouds  
Wind Chill: 44°   Ceiling: 10000
Heat Index: 48°   Visibility: 9mi
Dew Point: 45°   Wind: 8mph
Humidity: 89%   Direction: 120°ESE
Pressure: 30.2"   Gusts: NA
Location:  37.59°N, 120.95°W
Report Text: KMOD 191053Z AUTO 12007KT 9SM BKN100 09/07 A3020 RMK AO2 SLP226 T00890072
Loading
Personal Weather Stations






























Interactive Weather Map New forecast layout! Learn more

10-Day Weather Forecast

Advertisements
Track Severe Weather on mobile